createdAt,value
2023-04-21T00:01:50.022Z,15.99
2023-04-21T00:04:18.148Z,16.13
2023-04-21T00:06:45.787Z,15.76
2023-04-21T00:09:12.713Z,15.08
2023-04-21T00:11:39.663Z,15.52
2023-04-21T00:14:06.552Z,15.36
2023-04-21T00:16:33.492Z,15.80
2023-04-21T00:19:00.613Z,15.40
2023-04-21T00:21:27.501Z,15.03
2023-04-21T00:23:54.358Z,14.85
2023-04-21T00:26:21.261Z,14.91
2023-04-21T00:28:48.297Z,15.36
2023-04-21T00:31:15.162Z,15.02
2023-04-21T00:33:42.061Z,15.09
2023-04-21T00:36:08.967Z,15.74
2023-04-21T00:38:35.824Z,15.70
2023-04-21T00:41:02.782Z,15.50
2023-04-21T00:43:29.646Z,16.27
2023-04-21T00:45:56.490Z,16.66
2023-04-21T00:48:23.356Z,16.90
2023-04-21T00:50:50.276Z,17.62
2023-04-21T00:53:17.424Z,17.49
2023-04-21T00:55:44.264Z,17.77
2023-04-21T00:58:11.150Z,17.75
2023-04-21T01:00:39.627Z,18.20
2023-04-21T01:03:08.272Z,17.89
2023-04-21T01:05:35.865Z,17.97
2023-04-21T01:08:02.990Z,17.89
2023-04-21T01:10:30.189Z,16.66
2023-04-21T01:12:57.108Z,16.45
2023-04-21T01:15:24.011Z,17.00
2023-04-21T01:17:54.345Z,16.65
2023-04-21T01:20:21.290Z,17.04
2023-04-21T01:22:50.003Z,17.43
2023-04-21T01:25:17.767Z,17.60
2023-04-21T01:27:44.720Z,16.42
2023-04-21T01:30:11.786Z,15.72
2023-04-21T01:32:38.764Z,16.06
2023-04-21T01:35:06.754Z,16.80
2023-04-21T01:37:34.121Z,17.04
2023-04-21T01:40:04.913Z,17.12
2023-04-21T01:42:34.643Z,17.44
2023-04-21T01:45:01.558Z,17.42
2023-04-21T01:47:28.486Z,17.18
2023-04-21T01:49:55.638Z,16.89
2023-04-21T01:52:22.502Z,16.93
2023-04-21T01:54:49.429Z,16.25
2023-04-21T01:57:17.109Z,16.37
2023-04-21T01:59:44.445Z,16.37
2023-04-21T02:02:11.410Z,16.32
2023-04-21T02:04:38.512Z,16.38
2023-04-21T02:07:05.516Z,16.11
2023-04-21T02:09:32.565Z,15.91
2023-04-21T02:12:00.512Z,16.13
2023-04-21T02:14:27.817Z,16.22
2023-04-21T02:16:56.391Z,16.33
2023-04-21T02:19:23.687Z,16.28
2023-04-21T02:21:50.642Z,16.13
2023-04-21T02:24:17.815Z,16.52
2023-04-21T02:26:44.669Z,16.68
2023-04-21T02:29:11.526Z,16.80
2023-04-21T02:31:53.772Z,16.98
2023-04-21T02:34:25.344Z,17.11
2023-04-21T02:36:52.299Z,16.81
2023-04-21T02:39:19.466Z,16.37
2023-04-21T02:41:46.489Z,16.68
2023-04-21T02:44:13.338Z,16.94
2023-04-21T02:46:41.894Z,16.53
2023-04-21T02:49:09.620Z,16.65
2023-04-21T02:51:36.680Z,15.81
2023-04-21T02:54:03.724Z,16.51
2023-04-21T02:56:31.869Z,16.27
2023-04-21T02:58:58.807Z,16.46
2023-04-21T03:01:25.910Z,16.49
2023-04-21T03:03:52.865Z,16.37
2023-04-21T03:06:19.740Z,16.83
2023-04-21T03:08:46.701Z,16.50
2023-04-21T03:11:13.620Z,16.66
2023-04-21T03:13:40.715Z,17.45
2023-04-21T03:16:07.753Z,16.88
2023-04-21T03:18:37.444Z,17.26
2023-04-21T03:21:04.330Z,16.81
2023-04-21T03:23:31.208Z,16.65
2023-04-21T03:25:58.065Z,16.32
2023-04-21T03:28:24.946Z,17.06
2023-04-21T03:30:51.959Z,16.89
2023-04-21T03:33:18.898Z,16.52
2023-04-21T03:35:45.741Z,16.32
2023-04-21T03:38:12.626Z,16.74
2023-04-21T03:40:39.433Z,17.05
2023-04-21T03:43:06.309Z,16.77
2023-04-21T03:45:35.718Z,16.64
2023-04-21T03:48:02.754Z,16.71
2023-04-21T03:50:29.883Z,16.98
2023-04-21T03:52:57.373Z,16.83
2023-04-21T03:55:24.279Z,16.55
2023-04-21T03:57:51.142Z,16.39
2023-04-21T04:00:18.150Z,16.33
2023-04-21T04:02:45.138Z,16.89
2023-04-21T04:05:12.134Z,16.99
2023-04-21T04:07:40.047Z,17.07
2023-04-21T04:10:07.007Z,16.67
2023-04-21T04:12:33.922Z,16.49
2023-04-21T04:15:01.419Z,16.54
2023-04-21T04:17:28.353Z,16.73
2023-04-21T04:19:55.231Z,17.13
2023-04-21T04:22:22.065Z,17.82
2023-04-21T04:24:48.924Z,18.09
2023-04-21T04:27:15.797Z,18.01
2023-04-21T04:29:44.143Z,18.10
2023-04-21T04:32:11.557Z,18.24
2023-04-21T04:34:38.601Z,18.42
2023-04-21T04:37:06.904Z,18.92
2023-04-21T04:39:33.929Z,19.35
2023-04-21T04:42:01.584Z,18.81
2023-04-21T04:44:28.560Z,18.87
2023-04-21T04:46:55.975Z,18.72
2023-04-21T04:49:24.194Z,18.79
2023-04-21T04:51:51.270Z,18.92
2023-04-21T04:54:18.376Z,19.52
2023-04-21T04:56:45.564Z,18.95
2023-04-21T04:59:12.583Z,19.15
2023-04-21T05:01:40.846Z,19.59
2023-04-21T05:04:08.067Z,20.33
2023-04-21T05:06:35.195Z,21.25
2023-04-21T05:09:02.152Z,22.16
2023-04-21T05:11:29.053Z,23.14
2023-04-21T05:13:55.925Z,24.16
2023-04-21T05:16:22.905Z,25.20
2023-04-21T05:18:54.274Z,26.07
2023-04-21T05:21:27.828Z,26.77
2023-04-21T05:23:56.533Z,27.74
2023-04-21T05:26:24.507Z,28.03
2023-04-21T05:28:51.414Z,28.65
2023-04-21T05:31:18.270Z,28.39
2023-04-21T05:33:45.216Z,27.50
2023-04-21T05:36:12.408Z,27.56
2023-04-21T05:38:39.737Z,27.55
2023-04-21T05:41:06.797Z,27.58
2023-04-21T05:43:33.685Z,27.22
2023-04-21T05:46:07.717Z,26.23
2023-04-21T05:48:35.178Z,24.36
2023-04-21T05:51:12.033Z,21.76
2023-04-21T05:53:40.773Z,21.16
2023-04-21T05:56:09.437Z,20.32
2023-04-21T05:58:36.903Z,20.98
2023-04-21T06:01:03.912Z,20.22
2023-04-21T06:03:32.081Z,19.89
2023-04-21T06:06:00.921Z,18.77
2023-04-21T06:08:27.908Z,18.93
2023-04-21T06:10:55.008Z,18.76
2023-04-21T06:13:21.878Z,18.94
2023-04-21T06:15:48.800Z,18.70
2023-04-21T06:18:16.398Z,18.02
2023-04-21T06:20:43.254Z,17.93
2023-04-21T06:23:10.137Z,18.65
2023-04-21T06:25:37.027Z,19.45
2023-04-21T06:28:03.990Z,18.60
2023-04-21T06:30:30.843Z,18.42
2023-04-21T06:32:57.812Z,18.01
2023-04-21T06:35:24.681Z,18.21
2023-04-21T06:37:51.724Z,18.54
2023-04-21T06:40:18.705Z,17.98
2023-04-21T06:42:45.606Z,18.11
2023-04-21T06:45:12.495Z,18.27
2023-04-21T06:47:39.463Z,18.48
2023-04-21T06:50:07.625Z,18.66
2023-04-21T06:52:34.524Z,18.50
2023-04-21T06:55:01.429Z,18.78
2023-04-21T06:57:28.371Z,18.57
2023-04-21T06:59:55.291Z,19.01
2023-04-21T07:02:22.250Z,18.21
2023-04-21T07:04:49.372Z,18.44
2023-04-21T07:07:16.431Z,18.92
2023-04-21T07:09:43.379Z,18.25
2023-04-21T07:12:10.271Z,18.65
2023-04-21T07:14:37.162Z,18.00
2023-04-21T07:17:04.054Z,18.40
2023-04-21T07:19:31.038Z,18.11
2023-04-21T07:21:58.565Z,18.62
2023-04-21T07:24:25.431Z,19.44
2023-04-21T07:26:52.281Z,19.84
2023-04-21T07:29:19.608Z,19.04
2023-04-21T07:31:48.401Z,19.83
2023-04-21T07:34:15.569Z,20.34
2023-04-21T07:36:42.477Z,20.68
2023-04-21T07:39:09.395Z,20.38
2023-04-21T07:41:36.272Z,19.49
2023-04-21T07:44:03.191Z,19.55
2023-04-21T07:46:33.097Z,19.70
2023-04-21T07:49:02.805Z,18.73
2023-04-21T07:51:31.887Z,19.75
2023-04-21T07:53:58.981Z,19.88
2023-04-21T07:56:25.916Z,19.26
2023-04-21T07:58:52.740Z,19.72
2023-04-21T08:01:20.717Z,20.21
2023-04-21T08:03:47.708Z,20.25
2023-04-21T08:06:15.060Z,20.98
2023-04-21T08:08:42.120Z,21.17
2023-04-21T08:11:10.814Z,21.03
2023-04-21T08:13:38.085Z,20.95
2023-04-21T08:16:05.457Z,20.35
2023-04-21T08:18:32.465Z,20.38
2023-04-21T08:20:59.378Z,20.49
2023-04-21T08:23:26.435Z,21.47
2023-04-21T08:25:53.363Z,21.56
2023-04-21T08:28:20.315Z,21.27
2023-04-21T08:30:47.237Z,21.03
2023-04-21T08:33:14.259Z,21.25
2023-04-21T08:35:54.977Z,20.87
2023-04-21T08:38:28.713Z,19.81
2023-04-21T08:40:56.425Z,21.01
2023-04-21T08:43:23.373Z,20.47
2023-04-21T08:45:51.480Z,20.97
2023-04-21T08:48:21.781Z,21.57
2023-04-21T08:50:52.450Z,20.78
2023-04-21T08:53:19.398Z,21.17
2023-04-21T08:55:53.705Z,22.44
2023-04-21T08:58:26.741Z,21.05
2023-04-21T09:00:53.661Z,21.65
2023-04-21T09:03:26.469Z,22.17
2023-04-21T09:06:08.749Z,21.56
2023-04-21T09:08:42.977Z,21.91
2023-04-21T09:11:14.273Z,21.53
2023-04-21T09:13:43.379Z,21.76
2023-04-21T09:16:21.769Z,21.37
2023-04-21T09:18:51.728Z,22.55
2023-04-21T09:21:19.968Z,21.82
2023-04-21T09:23:47.869Z,20.51
2023-04-21T09:26:16.288Z,20.48
2023-04-21T09:28:44.181Z,20.62
2023-04-21T09:31:21.656Z,20.30
2023-04-21T09:36:21.626Z,21.53
2023-04-21T09:39:17.388Z,21.09
2023-04-21T09:41:44.413Z,20.31
2023-04-21T09:44:11.312Z,20.73
2023-04-21T09:46:39.623Z,20.84
2023-04-21T09:49:07.120Z,21.22
2023-04-21T09:56:50.090Z,20.67
2023-04-21T09:59:27.808Z,20.96
2023-04-21T10:01:56.692Z,20.93
2023-04-21T10:04:26.047Z,20.70
2023-04-21T10:06:53.583Z,21.01
2023-04-21T10:09:23.307Z,21.06
2023-04-21T10:11:50.278Z,20.90
2023-04-21T10:14:17.436Z,20.68
2023-04-21T10:16:44.515Z,20.92
2023-04-21T10:19:28.270Z,21.63
2023-04-21T10:21:58.062Z,21.20
2023-04-21T10:24:30.020Z,21.63
2023-04-21T10:27:00.059Z,21.31
2023-04-21T10:29:43.749Z,20.71
2023-04-21T10:32:32.255Z,20.82
2023-04-21T10:34:59.176Z,21.25
2023-04-21T10:37:26.023Z,21.49
2023-04-21T10:39:54.992Z,21.16
2023-04-21T10:42:29.938Z,21.66
2023-04-21T10:44:56.813Z,21.75
2023-04-21T10:47:52.131Z,21.31
2023-04-21T10:50:32.336Z,21.67
2023-04-21T10:53:12.611Z,20.92
2023-04-21T10:55:39.921Z,21.20
2023-04-21T10:58:11.774Z,21.71
2023-04-21T11:00:39.517Z,21.81
2023-04-21T11:03:07.986Z,21.62
2023-04-21T11:05:40.628Z,20.74
2023-04-21T11:08:15.001Z,21.02
2023-04-21T11:10:57.105Z,21.24
2023-04-21T11:13:26.716Z,21.40
2023-04-21T11:16:01.455Z,22.01
2023-04-21T11:18:34.295Z,21.57
2023-04-21T11:21:18.631Z,21.98
2023-04-21T11:23:50.738Z,22.00
2023-04-21T11:26:18.128Z,22.21
2023-04-21T11:28:49.685Z,21.61
2023-04-21T11:31:16.628Z,22.09
2023-04-21T11:33:43.661Z,21.96
2023-04-21T11:36:10.536Z,21.69
2023-04-21T11:38:40.898Z,22.16
2023-04-21T11:41:10.184Z,22.30
2023-04-21T11:43:38.116Z,22.20
2023-04-21T11:46:19.068Z,22.03
2023-04-21T11:48:46.772Z,21.72
2023-04-21T11:51:22.240Z,20.31
2023-04-21T11:53:49.444Z,21.74
2023-04-21T11:56:24.508Z,22.07
2023-04-21T11:58:53.003Z,22.51
2023-04-21T12:01:21.297Z,22.94
2023-04-21T12:03:57.085Z,22.22
2023-04-21T12:06:27.248Z,21.49
2023-04-21T12:09:01.928Z,21.73
2023-04-21T12:11:30.211Z,22.17
2023-04-21T12:14:00.506Z,22.34
2023-04-21T12:16:28.911Z,23.02
2023-04-21T12:18:56.608Z,22.58
2023-04-21T12:21:28.121Z,22.80
2023-04-21T12:23:55.219Z,23.13
2023-04-21T12:26:23.938Z,23.15
2023-04-21T12:28:51.962Z,22.53
2023-04-21T12:31:19.341Z,22.91
2023-04-21T12:33:48.715Z,22.43
2023-04-21T12:36:16.386Z,22.33
2023-04-21T12:38:44.708Z,21.90
2023-04-21T12:41:11.633Z,21.55
2023-04-21T12:43:38.489Z,21.79
2023-04-21T12:46:05.490Z,22.56
2023-04-21T12:48:32.476Z,22.27
2023-04-21T12:50:59.323Z,21.58
2023-04-21T12:53:26.175Z,21.69
2023-04-21T12:56:03.450Z,21.71
2023-04-21T12:58:31.851Z,21.40
2023-04-21T13:00:58.775Z,21.99
2023-04-21T13:03:25.806Z,21.96
2023-04-21T13:05:52.813Z,22.53
2023-04-21T13:08:19.689Z,22.35
2023-04-21T13:10:46.599Z,21.84
2023-04-21T13:13:13.563Z,22.20
2023-04-21T13:15:40.381Z,22.42
2023-04-21T13:18:07.336Z,22.39
2023-04-21T13:20:34.234Z,21.56
2023-04-21T13:23:01.121Z,21.34
2023-04-21T13:25:28.005Z,22.11
2023-04-21T13:27:54.906Z,22.18
2023-04-21T13:30:21.768Z,22.71
2023-04-21T13:32:49.668Z,23.16
2023-04-21T13:35:16.704Z,24.39
2023-04-21T13:37:43.578Z,23.41
2023-04-21T13:40:11.059Z,23.69
2023-04-21T13:42:38.710Z,22.17
2023-04-21T13:45:06.742Z,21.54
2023-04-21T13:47:34.537Z,22.21
2023-04-21T13:50:01.881Z,21.67
2023-04-21T13:52:28.723Z,21.49
2023-04-21T13:54:55.585Z,21.98
2023-04-21T13:57:22.632Z,21.72
2023-04-21T13:59:50.394Z,21.63
2023-04-21T14:02:18.225Z,21.85
2023-04-21T14:04:45.577Z,21.55
2023-04-21T14:07:14.934Z,21.21
2023-04-21T14:09:41.827Z,21.02
2023-04-21T14:12:08.773Z,22.15
2023-04-21T14:14:38.682Z,22.37
2023-04-21T14:17:06.129Z,22.37
2023-04-21T14:19:33.240Z,22.55
2023-04-21T14:22:00.306Z,23.01
2023-04-21T14:24:29.337Z,23.32
2023-04-21T14:26:56.561Z,21.54
2023-04-21T14:29:23.625Z,22.51
2023-04-21T14:31:51.312Z,24.12
2023-04-21T14:34:18.266Z,23.80
2023-04-21T14:36:47.631Z,24.11
2023-04-21T14:39:14.505Z,22.13
2023-04-21T14:41:41.412Z,21.66
2023-04-21T14:44:08.548Z,22.05
2023-04-21T14:46:35.954Z,21.84
2023-04-21T14:49:03.398Z,21.87
2023-04-21T14:51:31.931Z,22.22
2023-04-21T14:53:58.834Z,23.04
2023-04-21T14:56:25.953Z,22.72
2023-04-21T14:58:53.052Z,22.29
2023-04-21T15:01:20.038Z,21.55
2023-04-21T15:03:47.139Z,22.15
2023-04-21T15:06:14.297Z,22.39
2023-04-21T15:08:41.268Z,21.97
2023-04-21T15:11:08.262Z,21.54
2023-04-21T15:13:35.218Z,22.32
2023-04-21T15:16:02.106Z,21.78
2023-04-21T15:18:29.003Z,22.23
2023-04-21T15:20:55.886Z,22.91
2023-04-21T15:23:22.763Z,22.37
2023-04-21T15:25:49.650Z,22.45
2023-04-21T15:28:16.532Z,23.26
2023-04-21T15:30:43.972Z,23.71
2023-04-21T15:33:11.847Z,24.00
2023-04-21T15:35:38.854Z,24.27
2023-04-21T15:38:06.592Z,22.55
2023-04-21T15:40:33.537Z,22.17
2023-04-21T15:43:00.404Z,21.42
2023-04-21T15:45:27.286Z,20.94
2023-04-21T15:47:54.200Z,21.11
2023-04-21T15:50:21.219Z,21.10
2023-04-21T15:52:48.125Z,21.95
2023-04-21T15:55:15.434Z,21.75
2023-04-21T15:57:42.294Z,22.08
2023-04-21T16:00:12.946Z,21.27
2023-04-21T16:02:40.040Z,22.08
2023-04-21T16:05:07.393Z,22.02
2023-04-21T16:07:34.715Z,22.41
2023-04-21T16:10:01.605Z,22.72
2023-04-21T16:12:28.576Z,22.22
2023-04-21T16:15:01.598Z,22.48
2023-04-21T16:17:34.347Z,22.72
2023-04-21T16:20:01.221Z,22.39
2023-04-21T16:22:28.280Z,23.20
2023-04-21T16:24:55.261Z,22.62
2023-04-21T16:27:22.253Z,22.64
2023-04-21T16:29:50.461Z,21.99
2023-04-21T16:32:17.441Z,21.41
2023-04-21T16:34:44.398Z,20.94
2023-04-21T16:37:11.389Z,20.60
2023-04-21T16:39:38.497Z,20.79
2023-04-21T16:42:05.476Z,21.36
2023-04-21T16:44:32.400Z,20.28
2023-04-21T16:46:59.376Z,20.61
2023-04-21T16:49:26.323Z,20.18
2023-04-21T16:51:53.155Z,20.46
2023-04-21T16:54:20.039Z,20.26
2023-04-21T16:56:46.961Z,19.88
2023-04-21T16:59:14.209Z,20.20
2023-04-21T17:01:41.292Z,20.34
2023-04-21T17:04:08.359Z,20.29
2023-04-21T17:06:35.464Z,19.57
2023-04-21T17:09:02.347Z,20.12
2023-04-21T17:11:30.127Z,19.91
2023-04-21T17:13:56.978Z,20.07
2023-04-21T17:16:23.935Z,20.08
2023-04-21T17:18:50.960Z,20.34
2023-04-21T17:21:17.795Z,20.63
2023-04-21T17:23:44.690Z,20.28
2023-04-21T17:26:13.126Z,20.05
2023-04-21T17:28:40.379Z,20.27
2023-04-21T17:31:14.549Z,20.33
2023-04-21T17:33:43.571Z,20.35
2023-04-21T17:36:10.566Z,20.50
2023-04-21T17:38:37.691Z,20.72
2023-04-21T17:41:06.938Z,20.00
2023-04-21T17:43:33.901Z,20.08
2023-04-21T17:46:00.861Z,20.87
2023-04-21T17:48:27.796Z,20.22
2023-04-21T17:50:54.652Z,20.14
2023-04-21T17:53:21.523Z,20.26
2023-04-21T17:55:48.355Z,20.03
2023-04-21T17:58:15.254Z,19.80
2023-04-21T18:00:42.146Z,19.74
2023-04-21T18:03:09.138Z,20.05
2023-04-21T18:05:36.389Z,19.67
2023-04-21T18:08:03.290Z,19.54
2023-04-21T18:10:30.239Z,20.29
2023-04-21T18:12:57.620Z,20.02
2023-04-21T18:15:24.710Z,19.90
2023-04-21T18:17:53.355Z,20.38
2023-04-21T18:20:20.472Z,20.56
2023-04-21T18:22:47.611Z,20.71
2023-04-21T18:25:14.883Z,21.62
2023-04-21T18:27:41.970Z,21.73
2023-04-21T18:30:09.862Z,22.13
2023-04-21T18:32:37.203Z,21.88
2023-04-21T18:35:05.884Z,22.18
2023-04-21T18:37:34.933Z,22.14
2023-04-21T18:40:01.841Z,21.41
2023-04-21T18:42:28.760Z,21.06
2023-04-21T18:44:57.735Z,21.32
2023-04-21T18:47:25.134Z,21.33
2023-04-21T18:49:54.365Z,21.20
2023-04-21T18:52:21.256Z,21.18
2023-04-21T18:54:48.099Z,20.73
2023-04-21T18:57:14.961Z,20.93
2023-04-21T18:59:41.798Z,20.60
2023-04-21T19:02:13.207Z,20.71
2023-04-21T19:04:40.585Z,21.37
2023-04-21T19:07:10.154Z,20.71
2023-04-21T19:09:37.774Z,20.84
2023-04-21T19:12:05.022Z,20.96
2023-04-21T19:14:42.399Z,20.33
2023-04-21T19:17:13.437Z,21.02
2023-04-21T19:19:40.693Z,20.85
2023-04-21T19:22:07.680Z,20.32
2023-04-21T19:24:34.663Z,20.08
2023-04-21T19:27:06.278Z,20.22
2023-04-21T19:29:33.320Z,19.96
2023-04-21T19:32:00.316Z,19.20
2023-04-21T19:34:27.254Z,19.61
2023-04-21T19:36:54.276Z,19.17
2023-04-21T19:39:21.210Z,18.62
2023-04-21T19:41:48.084Z,18.79
2023-04-21T19:44:14.950Z,18.75
2023-04-21T19:46:43.257Z,19.14
2023-04-21T19:49:13.177Z,19.20
2023-04-21T19:51:41.393Z,19.25
2023-04-21T19:54:12.025Z,18.98
2023-04-21T19:56:40.034Z,18.66
2023-04-21T19:59:07.104Z,18.42
2023-04-21T20:01:34.809Z,18.87
2023-04-21T20:04:02.395Z,18.79
2023-04-21T20:06:29.440Z,19.22
2023-04-21T20:08:56.532Z,18.76
2023-04-21T20:11:23.496Z,18.57
2023-04-21T20:13:50.673Z,18.51
2023-04-21T20:16:18.376Z,18.71
2023-04-21T20:18:45.261Z,18.23
2023-04-21T20:21:12.634Z,18.48
2023-04-21T20:23:39.465Z,18.71
2023-04-21T20:26:06.359Z,18.92
2023-04-21T20:28:33.366Z,18.55
2023-04-21T20:31:00.338Z,18.71
2023-04-21T20:33:28.250Z,18.58
2023-04-21T20:35:55.588Z,18.74
2023-04-21T20:38:24.132Z,19.45
2023-04-21T20:40:52.501Z,19.36
2023-04-21T20:43:19.564Z,19.09
2023-04-21T20:45:47.545Z,19.12
2023-04-21T20:48:14.462Z,18.85
2023-04-21T20:50:43.332Z,19.02
2023-04-21T20:53:11.638Z,19.13
2023-04-21T20:55:38.778Z,19.52
2023-04-21T20:58:06.157Z,19.49
2023-04-21T21:00:34.754Z,18.84
2023-04-21T21:03:02.369Z,18.57
2023-04-21T21:05:30.505Z,18.49
2023-04-21T21:07:57.495Z,18.76
2023-04-21T21:10:24.396Z,18.24
2023-04-21T21:12:51.311Z,18.73
2023-04-21T21:15:18.209Z,18.58
2023-04-21T21:17:45.168Z,18.44
2023-04-21T21:20:12.152Z,18.06
2023-04-21T21:22:39.043Z,18.33
2023-04-21T21:25:06.254Z,17.91
2023-04-21T21:27:33.144Z,17.44
2023-04-21T21:30:00.014Z,17.90
2023-04-21T21:32:26.882Z,18.17
2023-04-21T21:34:53.797Z,18.26
2023-04-21T21:37:21.375Z,18.66
2023-04-21T21:39:48.417Z,17.70
2023-04-21T21:42:15.493Z,18.01
2023-04-21T21:44:42.440Z,17.73
2023-04-21T21:47:09.400Z,17.66
2023-04-21T21:49:38.514Z,17.63
2023-04-21T21:52:06.090Z,18.31
2023-04-21T21:54:32.955Z,18.27
2023-04-21T21:56:59.840Z,18.32
2023-04-21T21:59:26.760Z,18.06
2023-04-21T22:01:53.867Z,18.01
2023-04-21T22:04:21.060Z,18.50
2023-04-21T22:06:48.415Z,18.08
2023-04-21T22:09:15.550Z,18.23
2023-04-21T22:11:42.501Z,18.20
2023-04-21T22:14:21.692Z,18.76
2023-04-21T22:16:50.763Z,18.90
2023-04-21T22:19:20.429Z,18.19
2023-04-21T22:21:47.436Z,18.46
2023-04-21T22:24:14.334Z,18.60
2023-04-21T22:26:41.237Z,17.73
2023-04-21T22:29:08.102Z,17.75
2023-04-21T22:31:35.130Z,17.44
2023-04-21T22:34:02.090Z,18.20
2023-04-21T22:36:28.940Z,18.00
2023-04-21T22:38:55.793Z,18.03
2023-04-21T22:41:22.662Z,17.87
2023-04-21T22:43:49.543Z,16.89
2023-04-21T22:46:16.471Z,16.88
2023-04-21T22:48:46.753Z,16.93
2023-04-21T22:51:20.985Z,16.74
2023-04-21T22:53:47.890Z,17.37
2023-04-21T22:56:14.810Z,16.67
2023-04-21T22:58:41.849Z,16.81
2023-04-21T23:01:08.960Z,16.41
2023-04-21T23:03:36.060Z,16.97
2023-04-21T23:06:03.083Z,17.09
2023-04-21T23:08:29.919Z,17.43
2023-04-21T23:10:57.278Z,17.40
2023-04-21T23:13:24.137Z,17.24
2023-04-21T23:15:51.037Z,17.58
2023-04-21T23:18:17.929Z,17.63
2023-04-21T23:20:44.878Z,17.53
2023-04-21T23:23:11.891Z,17.13
2023-04-21T23:25:38.772Z,17.30
2023-04-21T23:28:05.770Z,16.77
2023-04-21T23:30:32.692Z,16.73
2023-04-21T23:32:59.669Z,16.43
2023-04-21T23:35:26.946Z,16.59
2023-04-21T23:37:53.805Z,16.61
2023-04-21T23:40:20.953Z,16.59
2023-04-21T23:42:48.278Z,16.58
2023-04-21T23:45:15.501Z,16.77
2023-04-21T23:47:42.365Z,16.49
2023-04-21T23:50:09.754Z,15.65
2023-04-21T23:52:36.626Z,15.73
2023-04-21T23:55:03.723Z,16.08
2023-04-21T23:57:30.564Z,15.65
2023-04-21T23:59:57.466Z,15.51
